Search for airport 
image banner adimage banner adimage banner ad
image banner ad

PN68 - Jackson

Located in New Galilee, United States

ICAO - PN68, IATA -

Data provided by Airmate  

General information

Coordinates: N40°53'49" W80°22'4"
Elevation is 930 feet MSL.
Magnetic variation is -07° East
View others Airports in Pennsylvania

Operational data

Special qualification required
Current time UTC:
Current local time:
Weather at : KBVI - Beaver County ( 14 km )
METAR: KBVI 091735Z AUTO 09006KT 2SM -RA OVC003 04/03 A2985 RMK AO2 T00400033
TAF: KBVI 091458Z 0915/1012 10007KT 4SM -SHRA OVC015 TEMPO 0915/0918 BKN007 FM091800 08006KT 3SM SHRA OVC008 FM092200 36007KT 4SM -SHRA OVC007 FM100400 35005KT 4SM BR OVC003 FM101000 32005KT P6SM BKN010
View NOTAMs / SUP AIP / TFR affecting this airport [VIEW]
Communications frequencies: [VIEW]

Runways:

RWY identifierQFULength (ft)Width (ft)SurfaceLDA (ft)
181200100GRASS
361200100GRASS

Airport contact information

Address: New Galilee United States

Satellite view of PN68